Latest Coastal Weather Observations for Neptune Island

IDS60701

Issued at 10:55 pm CDT Wednesday 22 October 2014 (issued every 10 minutes, with the page automatically refreshed every 10 minutes)

About coastal observations | Map of coastal stations | Coastal observations for SA | Marine services | Other Formats
Station Details ID: 018115 Name: NEPTUNE ISLAND Lat: -35.34 Lon: 136.12 Height: 32.0 m
Data from the previous 72 hours. | See also: Recent months at Neptune Island
Date/Time
CDT
Temp

°C
Wind Pressure Rain
since 9am
mm
Weather Cloud Vis
km
Sea
Height
m
Swell
Dir
 
Speed
knots
Gust
knots
hPa Trend Height
m
Period
s
Dir
22/10:30pm 14.2 SSE 17 24 1021.4 - 0.0 - - - - - - -
22/10:00pm 14.3 SSE 17 23 1021.2 - 0.0 - - - - - - -
22/09:30pm 14.2 SSE 19 25 1021.3 - 0.0 - - - - - - -
22/09:00pm 14.3 SSE 17 22 1020.9 - 0.0 - - - - - - -
22/08:30pm 14.1 SSE 19 25 1020.8 - 0.0 - - - - - - -
22/08:00pm 14.4 SSE 19 25 1020.6 - 0.0 - - - - - - -
22/07:30pm 14.2 S 20 24 1020.4 - 0.0 - - - - - - -
22/07:00pm 14.3 SSE 21 26 1020.2 - 0.0 - - - - - - -
22/06:30pm 14.6 S 21 26 1020.0 - 0.0 - - - - - - -
22/06:00pm 14.7 SSE 20 25 1019.9 - 0.0 - - - - - - -
22/05:30pm 14.7 SSE 20 25 1019.9 - 0.0 - - - - - - -
22/05:00pm 14.9 SSE 22 26 1019.6 - 0.0 - - - - - - -
22/04:30pm 15.1 S 24 29 1019.4 - 0.0 - - - - - - -
22/04:00pm 15.2 S 23 27 1019.5 - 0.0 - - - - - - -
22/03:30pm 15.2 S 23 27 1019.8 - 0.0 - - - - - - -
22/03:00pm 15.5 S 22 27 1020.0 - 0.0 - - - - - - -
22/02:30pm 15.3 S 22 26 1020.0 - 0.0 - - - - - - -
22/02:00pm 15.2 S 22 25 1020.2 - 0.0 - - - - - - -
22/01:30pm 14.6 S 21 26 1020.0 - 0.0 - - - - - - -
22/01:00pm 14.8 S 22 26 1020.2 - 0.0 - - - - - - -
22/12:30pm 14.5 S 23 28 1020.1 - 0.0 - - - - - - -
22/12:00pm 14.4 S 22 27 1020.1 - 0.0 - - - - - - -
22/11:30am 14.3 S 21 26 1020.1 - 0.0 - - - - - - -
22/11:00am 14.0 S 24 28 1020.0 - 0.0 - - - - - - -
22/10:30am 14.0 S 24 30 1019.9 - 0.0 - - - - - - -
22/10:00am 14.1 S 25 29 1019.8 - 0.0 - - - - - - -
22/09:30am 14.2 S 21 27 1019.4 - 0.0 - - - - - - -
22/09:00am 14.4 S 20 24 1019.2 - 0.0 - - - - - - -
22/08:30am 14.2 S 21 25 1019.0 - 0.0 - - - - - - -
22/08:00am 14.1 S 20 24 1018.9 - 0.0 - - - - - - -
22/07:30am 13.8 S 21 26 1018.6 - 0.0 - - - - - - -
22/07:00am 14.1 S 20 24 1018.3 - 0.0 - - - - - - -
22/06:30am 14.1 S 24 26 1017.9 - 0.0 - - - - - - -
22/06:00am 14.1 S 22 27 1017.6 - 0.0 - - - - - - -
22/05:30am 14.3 S 22 25 1017.4 - 0.0 - - - - - - -
22/05:00am 15.3 SSW 20 23 1017.2 - 0.0 - - - - - - -
22/04:30am 15.5 S 22 26 1016.5 - 0.0 - - - - - - -
22/04:00am 15.7 S 22 25 1016.3 - 0.0 - - - - - - -
22/03:30am 15.9 S 25 29 1016.3 - 0.0 - - - - - - -
22/03:00am 16.1 S 23 27 1016.4 - 0.0 - - - - - - -
22/02:30am 16.4 S 20 22 1016.6 - 0.0 - - - - - - -
22/02:00am 16.8 S 20 23 1016.6 - 0.0 - - - - - - -
22/01:30am 17.1 S 21 24 1016.4 - 0.0 - - - - - - -
22/01:00am 17.4 S 24 28 1016.6 - 0.0 - - - - - - -
22/12:30am 17.4 S 25 29 1016.5 - 0.0 - - - - - - -
22/12:00am 17.5 SSW 24 30 1016.9 - 0.0 - - - - - - -
 
Date/Time
CDT
Temp

°C
Wind Pressure Rain
since 9am
mm
Weather Cloud Vis
km
Sea
Height
m
Swell
Dir
 
Speed
knots
Gust
knots
hPa Trend Height
m
Period
s
Dir
21/11:30pm 17.7 SSW 22 26 1017.3 - 0.0 - - - - - - -
21/11:00pm 19.0 SW 21 28 1017.1 - 0.0 - - - - - - -
21/10:48pm 20.1 SW 21 30 1016.8 - 0.0 - - - - - - -
21/10:30pm 19.4 ESE 16 19 1016.2 - 0.0 - - - - - - -
21/10:00pm 19.3 SE 16 19 1016.3 - 0.0 - - - - - - -
21/09:30pm 18.5 SE 18 21 1016.0 - 0.0 - - - - - - -
21/09:00pm 18.6 SSE 14 19 1016.5 - 0.0 - - - - - - -
21/08:30pm 18.9 S 12 14 1015.9 - 0.0 - - - - - - -
21/08:00pm 20.0 SW 12 15 1015.7 - 0.0 - - - - - - -
21/07:30pm 23.8 NE 5 6 1014.5 - 0.0 - - - - - - -
21/07:00pm 22.5 SW 7 13 1014.9 - 0.0 - - - - - - -
21/06:30pm 21.4 WNW 4 6 1014.8 - 0.0 - - - - - - -
21/06:00pm 21.8 N 5 9 1014.8 - 0.0 - - - - - - -
21/05:30pm 21.7 NE 9 11 1015.0 - 0.0 - - - - - - -
21/05:00pm 20.3 NE 10 13 1014.9 - 0.0 - - - - - - -
21/04:30pm 21.0 NNE 9 17 1014.9 - 0.0 - - - - - - -
21/04:00pm 20.4 NNE 10 14 1015.0 - 0.0 - - - - - - -
21/03:30pm 20.1 NNE 13 15 1014.9 - 0.0 - - - - - - -
21/03:00pm 20.4 NNE 14 16 1015.0 - 0.0 - - - - - - -
21/02:30pm 19.9 NNE 13 17 1015.1 - 0.0 - - - - - - -
21/02:00pm 20.0 NNE 12 15 1015.7 - 0.0 - - - - - - -
21/01:30pm 20.5 NNE 11 15 1016.0 - 0.0 - - - - - - -
21/01:00pm 20.4 NE 12 16 1016.1 - 0.0 - - - - - - -
21/12:30pm 20.4 NE 15 19 1016.5 - 0.0 - - - - - - -
21/12:00pm 20.1 NE 12 16 1017.0 - 0.0 - - - - - - -
21/11:30am 19.4 NNE 10 13 1017.5 - 0.0 - - - - - - -
21/11:00am 20.1 NNE 9 11 1017.6 - 0.0 - - - - - - -
21/10:30am 20.6 NE 13 16 1017.7 - 0.0 - - - - - - -
21/10:00am 19.4 NE 16 21 1017.5 - 0.0 - - - - - - -
21/09:30am 19.4 ENE 20 22 1016.9 - 0.0 - - - - - - -
21/09:00am 19.4 NE 19 22 1017.0 - 0.0 - - - - - - -
21/08:30am 18.5 NE 19 22 1017.0 - 0.0 - - - - - - -
21/08:00am 18.3 ENE 19 22 1016.8 - 0.0 - - - - - - -
21/07:30am 17.8 ENE 16 18 1016.7 - 0.0 - - - - - - -
21/07:00am 17.7 ENE 16 18 1016.6 - 0.0 - - - - - - -
21/06:30am 17.9 ENE 16 18 1016.2 - 0.0 - - - - - - -
21/06:00am 18.0 ENE 20 23 1015.9 - 0.0 - - - - - - -
21/05:30am 17.7 ENE 19 21 1015.7 - 0.0 - - - - - - -
21/05:00am 17.2 ENE 18 19 1015.8 - 0.0 - - - - - - -
21/04:30am 17.2 ENE 18 20 1015.7 - 0.0 - - - - - - -
21/04:00am 17.1 ENE 21 23 1015.5 - 0.0 - - - - - - -
21/03:30am 17.0 ENE 21 24 1015.6 - 0.0 - - - - - - -
21/03:00am 17.0 ENE 21 25 1015.9 - 0.0 - - - - - - -
21/02:30am 17.1 ENE 23 26 1016.2 - 0.0 - - - - - - -
21/02:00am 17.1 ENE 24 27 1016.4 - 0.0 - - - - - - -
21/01:30am 17.2 ENE 23 28 1016.9 - 0.0 - - - - - - -
21/01:00am 17.2 ENE 23 28 1017.2 - 0.0 - - - - - - -
21/12:30am 17.3 ENE 26 30 1017.3 - 0.0 - - - - - - -
21/12:00am 17.1 E 23 29 1017.8 - 0.0 - - - - - - -
 
Date/Time
CDT
Temp

°C
Wind Pressure Rain
since 9am
mm
Weather Cloud Vis
km
Sea
Height
m
Swell
Dir
 
Speed
knots
Gust
knots
hPa Trend Height
m
Period
s
Dir
20/11:30pm 17.2 E 23 27 1018.2 - 0.0 - - - - - - -
20/11:00pm 17.3 E 24 29 1018.3 - 0.0 - - - - - - -
20/10:30pm 17.4 E 23 27 1018.5 - 0.0 - - - - - - -
20/10:00pm 17.0 E 20 23 1018.9 - 0.0 - - - - - - -
20/09:30pm 17.0 E 18 23 1019.1 - 0.0 - - - - - - -
20/09:00pm 17.1 E 20 23 1019.0 - 0.0 - - - - - - -
20/08:30pm 17.3 E 20 24 1018.6 - 0.0 - - - - - - -
20/08:00pm 17.5 E 20 23 1018.5 - 0.0 - - - - - - -
20/07:30pm 17.7 E 18 21 1018.3 - 0.0 - - - - - - -
20/07:00pm 18.0 E 19 22 1018.1 - 0.0 - - - - - - -
20/06:30pm 18.2 E 18 22 1018.2 - 0.0 - - - - - - -
20/06:00pm 18.7 E 18 21 1018.4 - 0.0 - - - - - - -
20/05:30pm 19.4 E 17 20 1018.6 - 0.0 - - - - - - -
20/05:00pm 19.6 E 16 20 1018.8 - 0.0 - - - - - - -
20/04:30pm 19.7 E 19 23 1018.9 - 0.0 - - - - - - -
20/04:00pm 19.5 E 20 25 1019.3 - 0.0 - - - - - - -
20/03:30pm 18.6 E 21 25 1019.6 - 0.0 - - - - - - -
20/03:00pm 19.4 E 20 25 1019.9 - 0.0 - - - - - - -
20/02:30pm 18.7 E 23 27 1020.2 - 0.0 - - - - - - -
20/02:00pm 18.8 E 22 27 1020.6 - 0.0 - - - - - - -
20/01:30pm 18.5 E 24 29 1021.1 - 0.0 - - - - - - -
20/01:00pm 18.2 E 21 27 1021.5 - 0.0 - - - - - - -
20/12:30pm 17.9 E 24 30 1021.9 - 0.0 - - - - - - -
20/12:00pm 17.2 E 26 31 1022.2 - 0.0 - - - - - - -
20/11:30am 17.2 E 25 31 1022.7 - 0.0 - - - - - - -
20/11:00am 16.6 E 26 31 1022.9 - 0.0 - - - - - - -
20/10:30am 16.1 E 26 33 1023.2 - 0.0 - - - - - - -
20/10:00am 16.0 E 27 32 1023.2 - 0.0 - - - - - - -
20/09:30am 16.0 E 27 33 1023.0 - 0.0 - - - - - - -
20/09:00am 15.2 E 28 35 1022.8 - 0.0 - - - - - - -
20/08:30am 14.7 E 28 32 1022.8 - 0.0 - - - - - - -
20/08:13am 14.5 E 25 35 1022.7 - 0.0 - - - - - - -
20/08:00am 14.6 E 28 33 1022.9 - 0.0 - - - - - - -
20/07:30am 14.4 E 26 32 1022.8 - 0.0 - - - - - - -
20/07:00am 14.3 E 26 32 1022.3 - 0.0 - - - - - - -
20/06:30am 14.3 E 26 32 1022.3 - 0.0 - - - - - - -
20/06:00am 14.4 E 25 31 1021.8 - 0.0 - - - - - - -
20/05:30am 14.5 E 23 28 1022.2 - 0.0 - - - - - - -
20/05:00am 14.5 E 23 29 1022.5 - 0.0 - - - - - - -
20/04:30am 14.4 E 24 31 1022.0 - 0.0 - - - - - - -
20/04:00am 14.3 E 25 32 1022.0 - 0.0 - - - - - - -
20/03:30am 14.3 E 25 30 1021.9 - 0.0 - - - - - - -
20/03:00am 14.4 E 23 29 1022.1 - 0.0 - - - - - - -
20/02:30am 14.4 ESE 24 29 1022.2 - 0.0 - - - - - - -
20/02:00am 14.4 ESE 23 29 1022.5 - 0.0 - - - - - - -
20/01:30am 14.5 ESE 23 28 1022.6 - 0.0 - - - - - - -
20/01:00am 14.5 E 22 27 1022.2 - 0.0 - - - - - - -
20/12:30am 14.5 E 23 28 1022.5 - 0.0 - - - - - - -
20/12:00am 14.7 E 21 26 1022.8 - 0.0 - - - - - - -
 
Date/Time
CDT
Temp

°C
Wind Pressure Rain
since 9am
mm
Weather Cloud Vis
km
Sea
Height
m
Swell
Dir
 
Speed
knots
Gust
knots
hPa Trend Height
m
Period
s
Dir
19/11:30pm 14.8 E 22 27 1022.9 - 0.0 - - - - - - -
19/11:00pm 14.8 E 23 29 1023.1 - 0.0 - - - - - - -

Other Formats:

Comma delimited format used in spreadsheet applications
http://www.bom.gov.au/fwo/IDS60701/IDS60701.94804.axf

JavaScript Object Notation format (JSON) in row-major order
http://www.bom.gov.au/fwo/IDS60701/IDS60701.94804.json